createdAt,value
2022-12-18T00:05:05.719Z,-7.7
2022-12-18T00:15:06.777Z,-7.7
2022-12-18T00:25:07.449Z,-7.7
2022-12-18T00:35:08.079Z,-7.7
2022-12-18T00:45:13.846Z,-7.8
2022-12-18T00:55:14.116Z,-7.8
2022-12-18T01:05:14.806Z,-7.9
2022-12-18T01:15:15.674Z,-8
2022-12-18T01:25:16.730Z,-8
2022-12-18T01:35:17.624Z,-8
2022-12-18T01:45:18.266Z,-8.1
2022-12-18T01:55:19.023Z,-8.2
2022-12-18T02:05:19.626Z,-8.1
2022-12-18T02:15:20.675Z,-8.1
2022-12-18T02:25:20.841Z,-8.1
2022-12-18T02:55:22.773Z,-8.5
2022-12-18T03:05:23.644Z,-8.7
2022-12-18T03:15:24.284Z,-8.6
2022-12-18T03:25:25.057Z,-8.8
2022-12-18T03:35:25.337Z,-8.9
2022-12-18T03:45:25.625Z,-9.1
2022-12-18T03:55:26.483Z,-9.2
2022-12-18T04:05:27.332Z,-9.3
2022-12-18T04:15:28.338Z,-9.3
2022-12-18T04:35:29.232Z,-9.3
2022-12-18T04:45:29.357Z,-9.3
2022-12-18T04:55:30.418Z,-9.2
2022-12-18T05:05:30.834Z,-9.2
2022-12-18T05:15:31.209Z,-9.2
2022-12-18T05:25:31.872Z,-9.1
2022-12-18T05:45:33.586Z,-9.2
2022-12-18T05:55:33.770Z,-9.2
2022-12-18T06:15:35.422Z,-9.3
2022-12-18T06:25:35.973Z,-9.3
2022-12-18T06:35:36.737Z,-9.4
2022-12-18T06:55:38.013Z,-9.5
2022-12-18T07:05:39.099Z,-9.4
2022-12-18T07:15:39.242Z,-9.3
2022-12-18T07:25:39.645Z,-9.2
2022-12-18T07:35:39.762Z,-9.2
2022-12-18T07:56:00.241Z,-9.1
2022-12-18T08:25:41.749Z,-8.6
2022-12-18T08:35:45.720Z,-8.4
2022-12-18T08:45:43.112Z,-8.2
2022-12-18T09:05:43.565Z,-7.8
2022-12-18T09:15:44.231Z,-7.4
2022-12-18T09:25:44.559Z,-7.1
2022-12-18T09:35:44.927Z,-6.9
2022-12-18T09:45:45.219Z,-6.7
2022-12-18T10:05:45.942Z,-5.9
2022-12-18T10:15:46.610Z,-5.4
2022-12-18T10:35:48.275Z,-4.6
2022-12-18T10:45:49.250Z,-4.3
2022-12-18T11:15:50.249Z,-3.2
2022-12-18T11:25:50.316Z,-2.9
2022-12-18T11:35:50.864Z,-2.7
2022-12-18T11:55:52.503Z,-2.5
2022-12-18T12:25:54.866Z,-1.9
2022-12-18T12:55:57.702Z,-1.5
2022-12-18T16:36:12.420Z,-1
2022-12-18T16:56:13.862Z,-1
2022-12-18T17:06:14.913Z,-1
2022-12-18T17:16:15.315Z,-0.9
2022-12-18T17:46:17.535Z,-0.7
2022-12-18T17:56:18.402Z,-0.6
2022-12-18T18:06:19.252Z,-0.6
2022-12-18T18:57:03.644Z,0.1
2022-12-18T19:06:23.801Z,0.4
2022-12-18T19:36:25.506Z,0.8
2022-12-18T19:46:26.436Z,0.8
2022-12-18T21:36:33.953Z,0.7
2022-12-18T21:56:34.973Z,0.6
2022-12-18T22:56:38.219Z,0.6
2022-12-18T23:16:39.643Z,0.9
2022-12-18T23:26:40.763Z,0.9
2022-12-18T23:36:45.407Z,0.9
2022-12-18T23:46:42.015Z,0.8
2022-12-18T23:56:43.069Z,0.8
